• Join FlightAware (Why Join?)
  • Login
  • US Flag 
08:05PM EDT


 

Airport Tracker/Info


-or-


 

Live Flight TrackerFlight Track Log ✈ N888FM ✈ 28-Jan-2014 ✈ KAVP - KTEB

Flight Track Log - Related Links

Times and Time Zones

All times are in EST time to prevent confusion due to time zone crossing. See the N888FM flight status page for this flight to view local times or setup timezone preferences in your user account.

Time Position Orientation Groundspeed Altitude Reporting Facility
EST Latitude Longitude Course Direction KTS MPH feet Rate Location/Type
08:07AM 41.2333 -75.7592 115° Southeast 247 284 5,200  Level New York Center
08:08AM 41.2119 -75.6719 108° East 247 284 6,600 1,260 Climbing New York Center
08:09AM 41.1931 -75.5769 105° East 252 290 7,800 660 Climbing New York Center
08:10AM 41.1778 -75.4903 103° East 265 305 8,000 60 Climbing New York Center
08:11AM 41.1567 -75.3869 105° East 277 319 8,000  Level New York Center
08:12AM 41.1567 -75.3417 115° Southeast  Level FlightAware Approximate
08:12AM 41.1300 -75.2750 108° East 289 333 8,000  Level New York Center
08:13AM 41.0983 -75.1736 112° Southeast 294 338 8,100 -300 Climbing New York Center
08:14AM 41.0664 -75.0781 114° Southeast 294 338 7,500 -900 Descending New York Center
08:15AM 41.0381 -74.9936 114° Southeast 287 330 6,300 -780 Descending New York Center
08:16AM 41.0042 -74.8953 115° Southeast 273 314 6,000 -540 Descending New York Center
08:17AM 40.9783 -74.7975 109° East 273 314 5,300 -720 Descending New York Center
08:18AM 40.9394 -74.7183 123° Southeast 266 306 4,600 -900 Descending New York Center
08:19AM 40.9003 -74.6419 124° Southeast 251 289 3,600 -840 Descending New York Center
08:20AM 40.8631 -74.5658 123° Southeast 251 289 3,000 -300 Descending New York Center
08:21AM 40.8278 -74.4981 125° Southeast 230 265 3,000  Level New York Center
08:22AM 40.7944 -74.4331 124° Southeast 225 259 3,000  Level New York Center
08:23AM 40.7631 -74.3711 124° Southeast 219 252 3,000 -420 Level New York Center
08:24AM 40.7319 -74.2983 119° Southeast 226 260 2,200 -480 Descending New York Center
08:25AM 40.7400 -74.2386 80° East 180 207 2,100 -120 Descending New York Center
08:26AM 40.7686 -74.1822 56° Northeast 173 199 2,000 -300 Descending New York Center
08:27AM 40.8011 -74.1403 44° Northeast 165 190 1,600 -600 Descending New York Center
08:28AM 40.8250 -74.1031 50° Northeast 151 174 800 2,160 Descending New York Center
08:29AM 40.8531 -74.0658 45° Northeast 137 158 6,000 2,580 Climbing New York Center
08:30AM 40.8792 -74.0342 43° Northeast 137 158 6,000  Level New York Center
08:31AM 40.9069 -74.0000 43° Northeast 137 158 6,000  Level New York Center
08:32AM 40.9331 -73.9683 42° Northeast 137 158 6,000  Level New York Center
08:33AM 40.9544 -73.9417 43° Northeast 137 158 6,000  Level New York Center
08:34AM 40.9544 -73.9417 30° Northeast 137 158 6,000  Level New York Center